Terminal Aerodrome Forecast
Issued by NWS

Home | Current Version | Previous Version | Text Only | Print | Product List | Glossary On
Versions: 1 2 3 4 5 6 7 8 9 10 11 12 13 14 15
000
FTUS45 KPIH 242300
TAFSUN
TAF
KSUN 242335Z 2500/2524 14007KT P6SM SCT025 BKN050
     FM250400 31008KT P6SM FEW025 SCT080 BKN130
     FM250800 31010KT P6SM SCT100 BKN180
     FM252000 14007KT P6SM SCT120 BKN180
      AMD LTD TO CLD VIS AND WIND 2506/2514=

USA.gov is the U.S. government's official web portal to all federal, state and local government web resources and services.